Portada
METAR-TAF:

METAR-TAF

Aeroports :

Newport State Airport

Newport, Rhode Island, Estats Units d'Amèrica

latitud: 41-31-48N, longitud: 071-17-01W, altitud: 52 m

Observació

L'informe es va fer fa 43 minuts, a les 05:01 UTC
Vent 3 kt amb direcció variable
Temperatura 19°C
Humitat 100%
Pressió 1013 hPa
Visibilitat: 1.2 km
Cel cobert a una alçada de 200 ft
boirina

METAR: KUUU 260501Z AUTO VRB03KT 3/4SM BR OVC002 19/19 A2992 RMK AO2 T01940189

Hora: 01:44 (05:44 UTC)


TAF: manca

Observacions i pronòstics meteorològics de més de 4000 aeroports (METAR i TAF).

Les estacions disponibles són els punts grocs i vermells al mapa.

Posi el ratolí al punt desitjat per veure el nom de l'estació.

Feu clic per veure les observacions i els pronòstics meteorològics.

Per canviar el mapa: feu clic els botons verds amb una creu de color negre per apropar; al botó verd amb un guió per allunyar la imatge; o en les fletxes verdes per a mapes adjacents.


METAR-TAF: